HLE53 EGBE-EGBE

Flight info

Callsign HLE53
Flight time N/A
Altitude 1200
Route HELIMED OPS
Aircraft A109/L-V/N

Departure

Time 2026-04-12 19:47
Airport Coventry Airport (EGBE)

Arrival

Time N/A
Airport Coventry Airport (EGBE)
Time Latitude Longitude Altitude Speed Heading
2026-04-12 19:42 52.36737 -1.48873 274 ft 0 kts 319°
2026-04-12 19:43 52.36762 -1.48886 275 ft 7 kts
2026-04-12 19:43 52.36800 -1.48830 277 ft 9 kts 105°
2026-04-12 19:44 52.36742 -1.48788 286 ft 14 kts 193°
2026-04-12 19:44 52.36737 -1.48873 274 ft 0 kts 319°
2026-04-12 19:46 52.36751 -1.48882 277 ft 4 kts
2026-04-12 19:46 52.36750 -1.48854 308 ft 6 kts 124°
2026-04-12 19:46 52.36705 -1.48835 403 ft 8 kts 173°
2026-04-12 19:47 52.36656 -1.48879 496 ft 10 kts 202°
2026-04-12 19:47 52.36626 -1.48730 616 ft 25 kts 22°
2026-04-12 19:47 52.36771 -1.48300 833 ft 60 kts 57°
2026-04-12 19:47 52.36997 -1.47702 1330 ft 69 kts 65°
2026-04-12 19:48 52.37249 -1.46886 1332 ft 95 kts 64°
2026-04-12 19:48 52.37571 -1.45779 1255 ft 122 kts 66°
2026-04-12 19:48 52.37958 -1.44456 1229 ft 142 kts 65°
2026-04-12 19:48 52.38399 -1.42988 1224 ft 147 kts 66°
2026-04-12 19:49 52.38728 -1.41900 1222 ft 148 kts 65°
2026-04-12 19:49 52.39761 -1.38558 1216 ft 148 kts 66°
2026-04-12 19:49 52.40239 -1.37038 1216 ft 149 kts 65°
2026-04-12 19:50 52.40707 -1.35556 1216 ft 149 kts 65°
2026-04-12 19:50 52.41158 -1.34157 1216 ft 150 kts 63°
2026-04-12 19:50 52.41735 -1.32797 1218 ft 151 kts 56°
2026-04-12 19:50 52.42371 -1.31347 1216 ft 151 kts 60°
2026-04-12 19:51 52.42875 -1.29846 1209 ft 152 kts 66°
2026-04-12 19:51 52.43359 -1.28328 1206 ft 158 kts 66°
2026-04-12 19:51 52.43877 -1.26707 1206 ft 164 kts 65°
2026-04-12 19:51 52.44392 -1.25098 1214 ft 167 kts 65°
2026-04-12 19:52 52.44907 -1.23489 1218 ft 167 kts 65°
2026-04-12 19:52 52.45444 -1.21818 1218 ft 168 kts 64°
2026-04-12 19:52 52.45926 -1.20313 1217 ft 168 kts 64°
2026-04-12 19:52 52.46540 -1.18393 1216 ft 168 kts 64°
2026-04-12 19:53 52.46951 -1.17106 1216 ft 168 kts 64°
2026-04-12 19:53 52.47532 -1.15290 1215 ft 167 kts 64°
2026-04-12 19:53 52.48000 -1.13825 1214 ft 167 kts 64°
2026-04-12 19:53 52.48531 -1.12160 1213 ft 167 kts 64°
2026-04-12 19:54 52.49055 -1.10516 1212 ft 167 kts 64°
2026-04-12 19:54 52.49585 -1.08854 1213 ft 166 kts 64°
2026-04-12 19:54 52.50115 -1.07190 1214 ft 166 kts 64°
2026-04-12 19:54 52.50649 -1.05514 1214 ft 166 kts 64°
2026-04-12 19:55 52.51183 -1.03837 1213 ft 166 kts 64°
2026-04-12 19:55 52.51712 -1.02169 1213 ft 166 kts 65°
2026-04-12 19:55 52.52169 -1.00449 1213 ft 165 kts 70°
2026-04-12 19:55 52.52596 -0.98737 1213 ft 165 kts 70°
2026-04-12 19:56 52.53014 -0.97066 1213 ft 165 kts 70°
2026-04-12 19:56 52.53424 -0.95436 1213 ft 165 kts 70°
2026-04-12 19:56 52.53880 -0.93631 1212 ft 165 kts 70°
2026-04-12 19:56 52.54316 -0.91903 1213 ft 165 kts 69°
2026-04-12 19:57 52.54758 -0.90161 1213 ft 165 kts 69°
2026-04-12 19:57 52.55196 -0.88436 1212 ft 165 kts 69°
2026-04-12 19:57 52.55635 -0.86704 1212 ft 165 kts 69°
2026-04-12 19:57 52.56073 -0.84987 1183 ft 164 kts 70°
2026-04-12 19:58 52.56511 -0.83242 1190 ft 166 kts 70°
2026-04-12 19:58 52.56951 -0.81507 1208 ft 165 kts 69°
2026-04-12 19:58 52.57386 -0.79784 1209 ft 164 kts 69°
2026-04-12 19:58 52.57826 -0.78044 1211 ft 164 kts 69°
2026-04-12 19:59 52.58260 -0.76328 1212 ft 164 kts 69°
2026-04-12 19:59 52.58699 -0.74588 1212 ft 164 kts 69°
2026-04-12 19:59 52.59134 -0.72867 1213 ft 164 kts 69°
2026-04-12 19:59 52.59567 -0.71148 1212 ft 164 kts 69°
2026-04-12 20:00 52.60005 -0.69408 1213 ft 164 kts 69°
2026-04-12 20:00 52.60442 -0.67674 1211 ft 164 kts 70°
2026-04-12 20:00 52.60872 -0.65960 1214 ft 164 kts 69°
2026-04-12 20:00 52.61309 -0.64221 1213 ft 164 kts 69°
2026-04-12 20:01 52.61736 -0.62522 1212 ft 164 kts 69°
2026-04-12 20:01 52.62167 -0.60805 1213 ft 164 kts 69°
2026-04-12 20:01 52.62603 -0.59068 1213 ft 164 kts 69°
2026-04-12 20:01 52.63042 -0.57322 1212 ft 164 kts 69°
2026-04-12 20:02 52.63472 -0.55612 1213 ft 164 kts 69°
2026-04-12 20:02 52.63879 -0.53991 1213 ft 164 kts 69°
2026-04-12 20:02 52.64331 -0.52190 1212 ft 164 kts 69°
2026-04-12 20:02 52.64750 -0.50549 1298 ft 153 kts 71°
2026-04-12 20:03 52.65177 -0.48899 1140 ft 157 kts 69°
2026-04-12 20:03 52.65511 -0.47364 1255 ft 146 kts 72°
2026-04-12 20:03 52.66016 -0.46046 1238 ft 123 kts 19°
2026-04-12 20:03 52.66736 -0.46343 1241 ft 108 kts 310°
2026-04-12 20:04 52.66877 -0.47418 979 ft 97 kts 247°
2026-04-12 20:04 52.66498 -0.48242 921 ft 92 kts 220°
2026-04-12 20:04 52.65984 -0.48566 870 ft 68 kts 166°
2026-04-12 20:04 52.65708 -0.48387 728 ft 39 kts 93°
2026-04-12 20:05 52.65701 -0.47936 470 ft 42 kts 79°
2026-04-12 20:05 52.65760 -0.47483 303 ft 27 kts 85°
2026-04-12 20:05 52.65764 -0.47420 171 ft 20 kts 89°
2026-04-12 20:07 52.61327 -0.48213 267 ft 0 kts 341°
2026-04-12 20:08 52.61371 -0.48226 273 ft 16 kts 350°
2026-04-12 20:08 52.61528 -0.48147 358 ft 35 kts 11°
2026-04-12 20:09 52.61922 -0.47988 584 ft 84 kts
2026-04-12 20:09 52.62635 -0.47783 660 ft 123 kts
2026-04-12 20:09 52.63538 -0.47632 651 ft 123 kts
2026-04-12 20:09 52.64280 -0.47512 599 ft 91 kts
2026-04-12 20:10 52.64790 -0.47431 508 ft 62 kts
2026-04-12 20:10 52.65167 -0.47313 306 ft 50 kts 11°
2026-04-12 20:10 52.65454 -0.47192 201 ft 34 kts
2026-04-12 20:10 52.65598 -0.47180 150 ft 7 kts 351°
2026-04-12 20:11 52.65646 -0.47199 164 ft 11 kts 347°
2026-04-12 20:11 52.65707 -0.47219 159 ft 1 kts 60°
2026-04-12 20:11 52.65705 -0.47222 158 ft 0 kts 59°
2026-04-12 20:13 52.65706 -0.47283 330 ft 10 kts 25°
2026-04-12 20:14 52.65998 -0.47267 513 ft 81 kts
2026-04-12 20:14 52.66684 -0.47230 626 ft 117 kts 360°
2026-04-12 20:14 52.67617 -0.47121 723 ft 145 kts
2026-04-12 20:14 52.68554 -0.46822 1209 ft 133 kts 15°
2026-04-12 20:15 52.69461 -0.46319 1525 ft 140 kts 20°
2026-04-12 20:15 52.70181 -0.45410 1955 ft 134 kts 74°
2026-04-12 20:15 52.69630 -0.44758 2119 ft 129 kts 194°
2026-04-12 20:15 52.68693 -0.45513 1922 ft 138 kts 214°
2026-04-12 20:16 52.68963 -0.45352 1918 ft 98 kts 82°
2026-04-12 20:16 52.68364 -0.44448 1726 ft 139 kts 163°
2026-04-12 20:16 52.67376 -0.44907 1361 ft 166 kts 209°
2026-04-12 20:16 52.66433 -0.45899 1106 ft 165 kts 217°
2026-04-12 20:17 52.66334 -0.47492 1059 ft 152 kts 311°
2026-04-12 20:17 52.67204 -0.48325 1036 ft 144 kts 334°
2026-04-12 20:17 52.67986 -0.47962 1081 ft 116 kts 67°
2026-04-12 20:17 52.67773 -0.47050 975 ft 99 kts 188°
2026-04-12 20:18 52.67300 -0.47541 1201 ft 67 kts 225°
2026-04-12 20:18 52.66987 -0.48109 1024 ft 73 kts 226°
2026-04-12 20:18 52.66625 -0.48717 838 ft 76 kts 225°
2026-04-12 20:18 52.66311 -0.49315 532 ft 58 kts 234°
2026-04-12 20:19 52.66036 -0.49813 436 ft 58 kts 248°
2026-04-12 20:19 52.66291 -0.50262 409 ft 54 kts 19°
2026-04-12 20:19 52.66386 -0.49909 270 ft 30 kts 149°
2026-04-12 20:19 52.66250 -0.49833 236 ft 14 kts 172°
2026-04-12 20:20 52.66208 -0.49811 205 ft 3 kts 146°
2026-04-12 20:20 52.66206 -0.49808 205 ft 0 kts 142°